sensor_id;sensor_type;location;lat;lon;timestamp;pressure;altitude;pressure_sealevel;temperature;humidity
59419;BME280;45224;50.904;6.038;2023-03-11T00:01:00;98897.00;;;1.17;88.57
59419;BME280;45224;50.904;6.038;2023-03-11T00:02:30;98903.91;;;1.21;87.67
59419;BME280;45224;50.904;6.038;2023-03-11T00:04:00;98905.69;;;1.25;87.93
59419;BME280;45224;50.904;6.038;2023-03-11T00:05:41;98906.16;;;1.09;87.23
59419;BME280;45224;50.904;6.038;2023-03-11T00:07:12;98900.09;;;1.04;87.33
59419;BME280;45224;50.904;6.038;2023-03-11T00:08:43;98906.84;;;1.03;87.02
59419;BME280;45224;50.904;6.038;2023-03-11T00:10:16;98899.16;;;1.00;86.90
59419;BME280;45224;50.904;6.038;2023-03-11T00:11:46;98909.88;;;0.88;85.89
59419;BME280;45224;50.904;6.038;2023-03-11T00:13:17;98916.78;;;0.93;85.99
59419;BME280;45224;50.904;6.038;2023-03-11T00:14:47;98915.06;;;0.91;86.05
59419;BME280;45224;50.904;6.038;2023-03-11T00:16:18;98922.03;;;0.99;85.68
59419;BME280;45224;50.904;6.038;2023-03-11T00:17:49;98916.41;;;0.77;84.87
59419;BME280;45224;50.904;6.038;2023-03-11T00:19:20;98919.25;;;0.89;85.50
59419;BME280;45224;50.904;6.038;2023-03-11T00:20:51;98920.06;;;0.88;85.55
59419;BME280;45224;50.904;6.038;2023-03-11T00:22:22;98908.97;;;0.85;85.02
59419;BME280;45224;50.904;6.038;2023-03-11T00:23:52;98916.59;;;0.85;84.92
59419;BME280;45224;50.904;6.038;2023-03-11T00:25:25;98915.63;;;0.80;84.67
59419;BME280;45224;50.904;6.038;2023-03-11T00:26:57;98917.38;;;0.82;85.12
59419;BME280;45224;50.904;6.038;2023-03-11T00:28:27;98920.59;;;0.75;83.50
59419;BME280;45224;50.904;6.038;2023-03-11T00:29:57;98922.09;;;0.67;83.96
59419;BME280;45224;50.904;6.038;2023-03-11T00:31:28;98929.97;;;0.76;84.79
59419;BME280;45224;50.904;6.038;2023-03-11T00:32:59;98925.66;;;0.73;84.36
59419;BME280;45224;50.904;6.038;2023-03-11T00:34:29;98930.03;;;0.79;84.60
59419;BME280;45224;50.904;6.038;2023-03-11T00:35:59;98924.97;;;0.79;84.09
59419;BME280;45224;50.904;6.038;2023-03-11T00:37:30;98929.03;;;0.74;83.75
59419;BME280;45224;50.904;6.038;2023-03-11T00:39:03;98930.53;;;0.66;82.72
59419;BME280;45224;50.904;6.038;2023-03-11T00:40:37;98932.31;;;0.68;84.05
59419;BME280;45224;50.904;6.038;2023-03-11T00:42:08;98938.41;;;0.75;84.29
59419;BME280;45224;50.904;6.038;2023-03-11T00:43:38;98933.84;;;0.62;83.98
59419;BME280;45224;50.904;6.038;2023-03-11T00:45:09;98938.25;;;0.69;84.28
59419;BME280;45224;50.904;6.038;2023-03-11T00:46:40;98941.59;;;0.66;84.50
59419;BME280;45224;50.904;6.038;2023-03-11T00:48:11;98935.69;;;0.69;84.39
59419;BME280;45224;50.904;6.038;2023-03-11T00:49:42;98951.00;;;0.70;84.20
59419;BME280;45224;50.904;6.038;2023-03-11T00:51:14;98943.34;;;0.69;83.89
59419;BME280;45224;50.904;6.038;2023-03-11T00:52:46;98951.84;;;0.71;84.67
59419;BME280;45224;50.904;6.038;2023-03-11T00:54:17;98955.31;;;0.73;84.34
59419;BME280;45224;50.904;6.038;2023-03-11T00:55:47;98952.75;;;0.71;83.72
59419;BME280;45224;50.904;6.038;2023-03-11T00:57:18;98954.47;;;0.74;83.99
59419;BME280;45224;50.904;6.038;2023-03-11T00:58:48;98950.16;;;0.70;83.85
59419;BME280;45224;50.904;6.038;2023-03-11T01:00:21;98953.69;;;0.75;84.53
59419;BME280;45224;50.904;6.038;2023-03-11T01:01:52;98955.25;;;0.70;83.91
59419;BME280;45224;50.904;6.038;2023-03-11T01:03:25;98950.94;;;0.67;83.54
59419;BME280;45224;50.904;6.038;2023-03-11T01:04:55;98956.09;;;0.70;83.67
59419;BME280;45224;50.904;6.038;2023-03-11T01:06:26;98962.06;;;0.72;83.85
59419;BME280;45224;50.904;6.038;2023-03-11T01:07:57;98972.81;;;0.61;83.67
59419;BME280;45224;50.904;6.038;2023-03-11T01:09:30;98969.31;;;0.57;83.93
59419;BME280;45224;50.904;6.038;2023-03-11T01:11:02;98985.53;;;0.61;83.88
59419;BME280;45224;50.904;6.038;2023-03-11T01:12:33;98982.22;;;0.63;83.89
59419;BME280;45224;50.904;6.038;2023-03-11T01:14:05;98989.84;;;0.63;84.22
59419;BME280;45224;50.904;6.038;2023-03-11T01:15:36;98981.91;;;0.52;84.14
59419;BME280;45224;50.904;6.038;2023-03-11T01:17:06;98983.66;;;0.53;84.46
59419;BME280;45224;50.904;6.038;2023-03-11T01:18:39;98986.19;;;0.53;84.40
59419;BME280;45224;50.904;6.038;2023-03-11T01:20:10;98981.09;;;0.53;84.68
59419;BME280;45224;50.904;6.038;2023-03-11T01:21:41;98976.47;;;0.40;84.56
59419;BME280;45224;50.904;6.038;2023-03-11T01:23:13;98974.69;;;0.36;84.88
59419;BME280;45224;50.904;6.038;2023-03-11T01:24:44;98981.59;;;0.42;85.14
59419;BME280;45224;50.904;6.038;2023-03-11T01:26:14;98979.88;;;0.39;85.31
59419;BME280;45224;50.904;6.038;2023-03-11T01:27:45;98985.03;;;0.42;84.99
59419;BME280;45224;50.904;6.038;2023-03-11T01:29:15;98983.97;;;0.35;84.96
59419;BME280;45224;50.904;6.038;2023-03-11T01:30:46;98991.66;;;0.37;85.38
59419;BME280;45224;50.904;6.038;2023-03-11T01:32:17;98980.34;;;0.27;86.05
59419;BME280;45224;50.904;6.038;2023-03-11T01:33:48;98983.13;;;0.35;85.96
59419;BME280;45224;50.904;6.038;2023-03-11T01:35:20;98984.69;;;0.30;85.94
59419;BME280;45224;50.904;6.038;2023-03-11T01:36:51;98990.53;;;0.27;86.16
59419;BME280;45224;50.904;6.038;2023-03-11T01:38:23;98983.03;;;0.32;86.60
59419;BME280;45224;50.904;6.038;2023-03-11T01:39:53;98984.69;;;0.30;86.06
59419;BME280;45224;50.904;6.038;2023-03-11T01:41:24;98988.13;;;0.32;85.99
59419;BME280;45224;50.904;6.038;2023-03-11T01:42:54;98988.00;;;0.27;86.31
59419;BME280;45224;50.904;6.038;2023-03-11T01:44:25;98991.25;;;0.22;86.62
59419;BME280;45224;50.904;6.038;2023-03-11T01:47:35;98998.13;;;0.26;87.03
59419;BME280;45224;50.904;6.038;2023-03-11T01:49:10;98996.31;;;0.22;87.05
59419;BME280;45224;50.904;6.038;2023-03-11T01:50:47;98995.50;;;0.23;87.21
59419;BME280;45224;50.904;6.038;2023-03-11T01:52:19;98996.50;;;0.28;86.97
59419;BME280;45224;50.904;6.038;2023-03-11T01:53:53;98997.31;;;0.27;87.40
59419;BME280;45224;50.904;6.038;2023-03-11T01:55:26;99005.13;;;0.33;87.01
59419;BME280;45224;50.904;6.038;2023-03-11T01:56:58;98999.97;;;0.31;87.08
59419;BME280;45224;50.904;6.038;2023-03-11T01:58:34;99004.09;;;0.26;87.61
59419;BME280;45224;50.904;6.038;2023-03-11T02:00:08;99005.63;;;0.21;87.55
59419;BME280;45224;50.904;6.038;2023-03-11T02:01:48;99005.84;;;0.29;87.93
59419;BME280;45224;50.904;6.038;2023-03-11T02:03:26;98992.25;;;0.28;87.36
59419;BME280;45224;50.904;6.038;2023-03-11T02:04:59;99003.38;;;0.32;87.36
59419;BME280;45224;50.904;6.038;2023-03-11T02:06:31;98997.25;;;0.25;87.99
59419;BME280;45224;50.904;6.038;2023-03-11T02:08:03;98997.25;;;0.25;87.89
59419;BME280;45224;50.904;6.038;2023-03-11T02:09:37;98997.41;;;0.30;88.21
59419;BME280;45224;50.904;6.038;2023-03-11T02:11:12;98995.56;;;0.26;87.90
59419;BME280;45224;50.904;6.038;2023-03-11T02:12:45;98984.50;;;0.24;87.86
59419;BME280;45224;50.904;6.038;2023-03-11T02:14:28;98985.44;;;0.27;87.89
59419;BME280;45224;50.904;6.038;2023-03-11T02:16:00;98993.16;;;0.30;87.87
59419;BME280;45224;50.904;6.038;2023-03-11T02:17:31;98991.41;;;0.28;87.82
59419;BME280;45224;50.904;6.038;2023-03-11T02:22:50;99008.94;;;0.18;88.88
59419;BME280;45224;50.904;6.038;2023-03-11T02:27:02;99007.00;;;0.10;89.19
59419;BME280;45224;50.904;6.038;2023-03-11T02:28:34;98998.63;;;0.14;89.18
59419;BME280;45224;50.904;6.038;2023-03-11T02:30:07;99003.72;;;0.14;89.53
59419;BME280;45224;50.904;6.038;2023-03-11T02:31:41;99004.66;;;0.17;89.57
59419;BME280;45224;50.904;6.038;2023-03-11T02:33:13;98989.31;;;0.14;89.73
59419;BME280;45224;50.904;6.038;2023-03-11T02:34:45;98983.25;;;0.09;89.47
59419;BME280;45224;50.904;6.038;2023-03-11T02:36:40;99001.25;;;0.17;90.00
59419;BME280;45224;50.904;6.038;2023-03-11T02:38:13;98995.25;;;0.13;89.95
59419;BME280;45224;50.904;6.038;2023-03-11T02:39:49;99001.97;;;0.11;90.08
59419;BME280;45224;50.904;6.038;2023-03-11T02:41:20;98996.91;;;0.13;90.40
59419;BME280;45224;50.904;6.038;2023-03-11T02:42:59;98995.28;;;0.15;90.59
59419;BME280;45224;50.904;6.038;2023-03-11T02:44:32;98997.09;;;0.19;90.27
59419;BME280;45224;50.904;6.038;2023-03-11T02:46:05;99002.03;;;0.14;90.56
59419;BME280;45224;50.904;6.038;2023-03-11T02:47:37;99000.41;;;0.16;90.49
59419;BME280;45224;50.904;6.038;2023-03-11T02:49:11;99002.22;;;0.21;90.43
59419;BME280;45224;50.904;6.038;2023-03-11T02:50:43;99004.75;;;0.21;90.24
59419;BME280;45224;50.904;6.038;2023-03-11T02:52:13;98998.69;;;0.15;90.28
59419;BME280;45224;50.904;6.038;2023-03-11T02:53:48;98992.78;;;0.16;90.22
59419;BME280;45224;50.904;6.038;2023-03-11T02:55:20;98985.13;;;0.15;90.79
59419;BME280;45224;50.904;6.038;2023-03-11T02:56:51;98989.41;;;0.17;90.09
59419;BME280;45224;50.904;6.038;2023-03-11T02:58:22;98998.63;;;0.14;89.81
59419;BME280;45224;50.904;6.038;2023-03-11T02:59:52;98996.13;;;0.15;90.16
59419;BME280;45224;50.904;6.038;2023-03-11T03:01:23;98998.63;;;0.14;90.04
59419;BME280;45224;50.904;6.038;2023-03-11T03:02:54;99002.06;;;0.16;90.52
59419;BME280;45224;50.904;6.038;2023-03-11T03:04:26;98999.34;;;0.08;90.45
59419;BME280;45224;50.904;6.038;2023-03-11T03:05:56;99004.41;;;0.08;90.78
59419;BME280;45224;50.904;6.038;2023-03-11T03:07:27;98996.69;;;0.05;91.04
59419;BME280;45224;50.904;6.038;2023-03-11T03:08:59;98992.50;;;0.07;90.87
59419;BME280;45224;50.904;6.038;2023-03-11T03:10:29;98993.38;;;0.08;91.10
59419;BME280;45224;50.904;6.038;2023-03-11T03:12:01;99010.41;;;0.10;91.21
59419;BME280;45224;50.904;6.038;2023-03-11T03:13:33;99000.00;;;0.03;91.51
59419;BME280;45224;50.904;6.038;2023-03-11T03:15:06;99007.75;;;0.07;91.35
59419;BME280;45224;50.904;6.038;2023-03-11T03:16:36;99012.13;;;0.11;91.34
59419;BME280;45224;50.904;6.038;2023-03-11T03:18:07;99007.84;;;0.10;91.35
59419;BME280;45224;50.904;6.038;2023-03-11T03:19:37;99013.00;;;0.12;91.45
59419;BME280;45224;50.904;6.038;2023-03-11T03:21:08;99018.03;;;0.10;92.28
59419;BME280;45224;50.904;6.038;2023-03-11T03:22:40;99017.22;;;0.11;91.81
59419;BME280;45224;50.904;6.038;2023-03-11T03:24:12;99013.78;;;0.11;91.73
59419;BME280;45224;50.904;6.038;2023-03-11T03:25:44;99020.72;;;0.15;91.42
59419;BME280;45224;50.904;6.038;2023-03-11T03:27:15;99018.13;;;0.13;91.59
59419;BME280;45224;50.904;6.038;2023-03-11T03:28:45;99026.63;;;0.15;92.14
59419;BME280;45224;50.904;6.038;2023-03-11T03:30:16;99029.09;;;0.12;92.03
59419;BME280;45224;50.904;6.038;2023-03-11T03:31:47;99025.47;;;0.04;92.52
59419;BME280;45224;50.904;6.038;2023-03-11T03:33:17;99025.59;;;0.09;92.53
59419;BME280;45224;50.904;6.038;2023-03-11T03:34:48;99030.78;;;0.12;92.48
59419;BME280;45224;50.904;6.038;2023-03-11T03:36:19;99028.16;;;0.09;92.62
59419;BME280;45224;50.904;6.038;2023-03-11T03:37:55;99029.09;;;0.12;92.26
59419;BME280;45224;50.904;6.038;2023-03-11T03:39:26;99035.16;;;0.17;92.46
59419;BME280;45224;50.904;6.038;2023-03-11T03:40:56;99027.50;;;0.16;92.25
59419;BME280;45224;50.904;6.038;2023-03-11T03:42:27;99036.00;;;0.16;92.18
59419;BME280;45224;50.904;6.038;2023-03-11T03:43:58;99034.41;;;0.20;92.17
59419;BME280;45224;50.904;6.038;2023-03-11T03:45:29;99038.53;;;0.16;92.76
59419;BME280;45224;50.904;6.038;2023-03-11T03:46:59;99037.63;;;0.14;92.44
59419;BME280;45224;50.904;6.038;2023-03-11T03:48:31;99037.47;;;0.08;92.72
59419;BME280;45224;50.904;6.038;2023-03-11T03:50:07;99042.63;;;0.11;92.98
59419;BME280;45224;50.904;6.038;2023-03-11T03:51:38;99040.00;;;0.08;92.93
59419;BME280;45224;50.904;6.038;2023-03-11T03:53:33;99045.88;;;0.07;92.92
59419;BME280;45224;50.904;6.038;2023-03-11T03:55:05;99045.19;;;0.11;92.54
59419;BME280;45224;50.904;6.038;2023-03-11T03:56:35;99042.59;;;0.10;92.70
59419;BME280;45224;50.904;6.038;2023-03-11T03:58:06;99042.59;;;0.10;92.82
59419;BME280;45224;50.904;6.038;2023-03-11T03:59:38;99040.00;;;0.08;93.06
59419;BME280;45224;50.904;6.038;2023-03-11T04:01:11;99037.47;;;0.08;92.47
59419;BME280;45224;50.904;6.038;2023-03-11T04:02:43;99038.38;;;0.10;92.75
59419;BME280;45224;50.904;6.038;2023-03-11T04:04:23;99040.00;;;0.08;92.59
59419;BME280;45224;50.904;6.038;2023-03-11T04:06:04;99043.44;;;0.10;92.30
59419;BME280;45224;50.904;6.038;2023-03-11T04:07:35;99045.00;;;0.05;92.31
59419;BME280;45224;50.904;6.038;2023-03-11T04:09:10;99046.78;;;0.09;92.63
59419;BME280;45224;50.904;6.038;2023-03-11T04:10:41;99048.47;;;0.09;92.43
59419;BME280;45224;50.904;6.038;2023-03-11T04:12:13;99048.16;;;-0.02;92.42
59419;BME280;45224;50.904;6.038;2023-03-11T04:13:44;99037.00;;;-0.07;93.04
59419;BME280;45224;50.904;6.038;2023-03-11T04:15:14;99039.63;;;-0.04;93.40
59419;BME280;45224;50.904;6.038;2023-03-11T04:16:47;99049.88;;;-0.01;93.26
59419;BME280;45224;50.904;6.038;2023-03-11T04:18:18;99051.56;;;-0.02;93.06
59419;BME280;45224;50.904;6.038;2023-03-11T04:19:49;99054.16;;;0.00;92.74
59419;BME280;45224;50.904;6.038;2023-03-11T04:21:20;99055.66;;;-0.05;92.78
59419;BME280;45224;50.904;6.038;2023-03-11T04:22:51;99054.88;;;-0.04;92.80
59419;BME280;45224;50.904;6.038;2023-03-11T04:24:24;99051.53;;;-0.03;92.74
59419;BME280;45224;50.904;6.038;2023-03-11T04:25:54;99062.53;;;-0.03;92.52
59419;BME280;45224;50.904;6.038;2023-03-11T04:27:25;99058.34;;;-0.01;92.72
59419;BME280;45224;50.904;6.038;2023-03-11T04:28:56;99059.16;;;-0.03;92.41
59419;BME280;45224;50.904;6.038;2023-03-11T04:30:28;99049.69;;;-0.07;93.30
59419;BME280;45224;50.904;6.038;2023-03-11T04:32:00;99058.22;;;-0.05;92.93
59419;BME280;45224;50.904;6.038;2023-03-11T04:33:32;99059.94;;;-0.04;93.03
59419;BME280;45224;50.904;6.038;2023-03-11T04:35:04;99051.53;;;-0.03;93.01
59419;BME280;45224;50.904;6.038;2023-03-11T04:36:35;99056.59;;;-0.03;92.73
59419;BME280;45224;50.904;6.038;2023-03-11T04:38:06;99056.59;;;-0.03;92.48
59419;BME280;45224;50.904;6.038;2023-03-11T04:39:36;99049.69;;;-0.07;92.67
59419;BME280;45224;50.904;6.038;2023-03-11T04:41:07;99056.59;;;-0.03;92.79
59419;BME280;45224;50.904;6.038;2023-03-11T04:42:41;99057.47;;;-0.03;92.86
59419;BME280;45224;50.904;6.038;2023-03-11T04:44:11;99065.13;;;-0.01;92.60
59419;BME280;45224;50.904;6.038;2023-03-11T04:45:42;99059.94;;;-0.04;92.93
59419;BME280;45224;50.904;6.038;2023-03-11T04:47:13;99047.94;;;-0.08;92.65
59419;BME280;45224;50.904;6.038;2023-03-11T04:48:44;99058.22;;;-0.05;92.87
59419;BME280;45224;50.904;6.038;2023-03-11T04:50:16;99056.59;;;-0.03;92.57
59419;BME280;45224;50.904;6.038;2023-03-11T04:51:46;99059.16;;;-0.03;92.51
59419;BME280;45224;50.904;6.038;2023-03-11T04:53:20;99053.09;;;-0.07;92.53
59419;BME280;45224;50.904;6.038;2023-03-11T04:54:50;99053.97;;;-0.06;92.72
59419;BME280;45224;50.904;6.038;2023-03-11T04:56:21;99056.56;;;-0.05;92.46
59419;BME280;45224;50.904;6.038;2023-03-11T04:57:53;99059.06;;;-0.06;92.61
59419;BME280;45224;50.904;6.038;2023-03-11T04:59:24;99070.13;;;-0.04;92.37
59419;BME280;45224;50.904;6.038;2023-03-11T05:00:55;99065.75;;;-0.08;92.24
59419;BME280;45224;50.904;6.038;2023-03-11T05:02:26;99068.28;;;-0.08;92.38
59419;BME280;45224;50.904;6.038;2023-03-11T05:04:02;99067.38;;;-0.10;92.60
59419;BME280;45224;50.904;6.038;2023-03-11T05:05:34;99066.44;;;-0.14;92.55
59419;BME280;45224;50.904;6.038;2023-03-11T05:07:05;99072.47;;;-0.10;92.38
59419;BME280;45224;50.904;6.038;2023-03-11T05:08:35;99071.47;;;-0.15;92.78
59419;BME280;45224;50.904;6.038;2023-03-11T05:10:06;99071.38;;;-0.19;92.95
59419;BME280;45224;50.904;6.038;2023-03-11T05:11:39;99070.50;;;-0.19;92.95
59419;BME280;45224;50.904;6.038;2023-03-11T05:13:10;99073.75;;;-0.23;93.22
59419;BME280;45224;50.904;6.038;2023-03-11T05:14:42;99083.97;;;-0.22;93.16
59419;BME280;45224;50.904;6.038;2023-03-11T05:16:13;99079.66;;;-0.24;93.44
59419;BME280;45224;50.904;6.038;2023-03-11T05:17:44;99076.94;;;-0.30;93.08
59419;BME280;45224;50.904;6.038;2023-03-11T05:19:14;99087.00;;;-0.33;93.62
59419;BME280;45224;50.904;6.038;2023-03-11T05:21:00;99086.94;;;-0.35;94.08
59419;BME280;45224;50.904;6.038;2023-03-11T05:22:35;99095.88;;;-0.46;94.57
59419;BME280;45224;50.904;6.038;2023-03-11T05:24:05;99090.91;;;-0.43;94.97
59419;BME280;45224;50.904;6.038;2023-03-11T05:25:36;99087.44;;;-0.45;94.25
59419;BME280;45224;50.904;6.038;2023-03-11T05:27:08;99097.75;;;-0.41;94.55
59419;BME280;45224;50.904;6.038;2023-03-11T05:28:40;99088.28;;;-0.46;94.68
59419;BME280;45224;50.904;6.038;2023-03-11T05:30:11;99092.38;;;-0.50;94.91
59419;BME280;45224;50.904;6.038;2023-03-11T05:31:43;99097.59;;;-0.45;94.95
59419;BME280;45224;50.904;6.038;2023-03-11T05:33:14;99102.66;;;-0.45;94.66
59419;BME280;45224;50.904;6.038;2023-03-11T05:34:44;99107.00;;;-0.43;94.77
59419;BME280;45224;50.904;6.038;2023-03-11T05:36:15;99104.50;;;-0.41;94.40
59419;BME280;45224;50.904;6.038;2023-03-11T05:37:47;99109.50;;;-0.44;94.88
59419;BME280;45224;50.904;6.038;2023-03-11T05:39:22;99112.09;;;-0.43;94.50
59419;BME280;45224;50.904;6.038;2023-03-11T05:40:53;99101.91;;;-0.43;94.18
59419;BME280;45224;50.904;6.038;2023-03-11T05:42:24;99106.94;;;-0.44;94.62
59419;BME280;45224;50.904;6.038;2023-03-11T05:43:57;99111.22;;;-0.43;94.36
59419;BME280;45224;50.904;6.038;2023-03-11T05:45:28;99106.16;;;-0.43;94.56
59419;BME280;45224;50.904;6.038;2023-03-11T05:47:00;99104.41;;;-0.44;94.22
59419;BME280;45224;50.904;6.038;2023-03-11T05:48:31;99110.44;;;-0.41;94.40
59419;BME280;45224;50.904;6.038;2023-03-11T05:50:02;99111.22;;;-0.43;94.45
59419;BME280;45224;50.904;6.038;2023-03-11T05:51:33;99112.81;;;-0.45;94.42
59419;BME280;45224;50.904;6.038;2023-03-11T05:53:04;99110.34;;;-0.44;94.30
59419;BME280;45224;50.904;6.038;2023-03-11T05:54:35;99115.47;;;-0.42;94.18
59419;BME280;45224;50.904;6.038;2023-03-11T05:56:06;99114.53;;;-0.46;94.04
59419;BME280;45224;50.904;6.038;2023-03-11T05:57:37;99121.38;;;-0.43;93.98
59419;BME280;45224;50.904;6.038;2023-03-11T05:59:10;99110.22;;;-0.48;93.85
59419;BME280;45224;50.904;6.038;2023-03-11T06:00:41;99125.59;;;-0.44;94.14
59419;BME280;45224;50.904;6.038;2023-03-11T06:02:12;99118.78;;;-0.45;94.05
59419;BME280;45224;50.904;6.038;2023-03-11T06:03:43;99123.97;;;-0.42;93.77
59419;BME280;45224;50.904;6.038;2023-03-11T06:05:14;99126.38;;;-0.46;93.90
59419;BME280;45224;50.904;6.038;2023-03-11T06:06:46;99127.25;;;-0.44;93.85
59419;BME280;45224;50.904;6.038;2023-03-11T06:08:18;99130.72;;;-0.42;93.67
59419;BME280;45224;50.904;6.038;2023-03-11T06:09:49;99131.53;;;-0.43;93.72
59419;BME280;45224;50.904;6.038;2023-03-11T06:11:21;99133.16;;;-0.45;93.94
59419;BME280;45224;50.904;6.038;2023-03-11T06:12:56;99135.66;;;-0.47;94.15
59419;BME280;45224;50.904;6.038;2023-03-11T06:14:30;99133.06;;;-0.48;94.02
59419;BME280;45224;50.904;6.038;2023-03-11T06:16:03;99130.59;;;-0.45;93.86
59419;BME280;45224;50.904;6.038;2023-03-11T06:17:34;99135.69;;;-0.45;93.84
59419;BME280;45224;50.904;6.038;2023-03-11T06:19:05;99133.13;;;-0.47;94.17
59419;BME280;45224;50.904;6.038;2023-03-11T06:20:40;99137.44;;;-0.44;94.10
59419;BME280;45224;50.904;6.038;2023-03-11T06:22:11;99137.47;;;-0.43;94.44
59419;BME280;45224;50.904;6.038;2023-03-11T06:23:41;99143.50;;;-0.39;94.37
59419;BME280;45224;50.904;6.038;2023-03-11T06:25:12;99135.19;;;-0.35;94.36
59419;BME280;45224;50.904;6.038;2023-03-11T06:26:44;99134.38;;;-0.34;94.59
59419;BME280;45224;50.904;6.038;2023-03-11T06:28:18;99146.25;;;-0.33;94.82
59419;BME280;45224;50.904;6.038;2023-03-11T06:29:51;99157.66;;;-0.22;94.69
59419;BME280;45224;50.904;6.038;2023-03-11T06:31:27;99153.41;;;-0.21;94.84
59419;BME280;45224;50.904;6.038;2023-03-11T06:33:03;99142.41;;;-0.22;94.70
59419;BME280;45224;50.904;6.038;2023-03-11T06:34:33;99152.66;;;-0.19;94.87
59419;BME280;45224;50.904;6.038;2023-03-11T06:36:05;99156.13;;;-0.16;94.96
59419;BME280;45224;50.904;6.038;2023-03-11T06:37:36;99169.75;;;-0.14;95.28
59419;BME280;45224;50.904;6.038;2023-03-11T06:39:06;99174.91;;;-0.11;95.13
59419;BME280;45224;50.904;6.038;2023-03-11T06:40:40;99165.63;;;-0.11;94.95
59419;BME280;45224;50.904;6.038;2023-03-11T06:42:11;99172.47;;;-0.08;94.76
59419;BME280;45224;50.904;6.038;2023-03-11T06:43:41;99172.56;;;-0.05;94.76
59419;BME280;45224;50.904;6.038;2023-03-11T06:45:13;99170.03;;;-0.05;94.11
59419;BME280;45224;50.904;6.038;2023-03-11T06:46:45;99176.28;;;0.05;94.68
59419;BME280;45224;50.904;6.038;2023-03-11T06:48:16;99175.47;;;0.06;93.99
59419;BME280;45224;50.904;6.038;2023-03-11T06:49:49;99180.72;;;0.10;94.42
59419;BME280;45224;50.904;6.038;2023-03-11T06:51:20;99182.41;;;0.10;94.17
59419;BME280;45224;50.904;6.038;2023-03-11T06:52:50;99185.59;;;0.04;93.99
59419;BME280;45224;50.904;6.038;2023-03-11T06:54:21;99181.94;;;-0.04;94.12
59419;BME280;45224;50.904;6.038;2023-03-11T06:57:28;99195.09;;;0.10;94.32
59419;BME280;45224;50.904;6.038;2023-03-11T06:59:02;99190.03;;;0.10;94.04
59419;BME280;45224;50.904;6.038;2023-03-11T07:00:35;99191.06;;;0.16;94.12
59419;BME280;45224;50.904;6.038;2023-03-11T07:02:11;99187.69;;;0.17;93.57
59419;BME280;45224;50.904;6.038;2023-03-11T07:03:44;99206.00;;;0.33;93.79
59419;BME280;45224;50.904;6.038;2023-03-11T07:05:14;99204.50;;;0.40;94.12
59419;BME280;45224;50.904;6.038;2023-03-11T07:06:45;99212.38;;;0.47;93.34
59419;BME280;45224;50.904;6.038;2023-03-11T07:08:20;99209.00;;;0.48;93.30
59419;BME280;45224;50.904;6.038;2023-03-11T07:09:54;99215.13;;;0.53;92.95
59419;BME280;45224;50.904;6.038;2023-03-11T07:11:26;99219.66;;;0.64;92.52
59419;BME280;45224;50.904;6.038;2023-03-11T07:13:01;99224.56;;;0.58;92.03
59419;BME280;45224;50.904;6.038;2023-03-11T07:14:32;99212.84;;;0.63;91.91
59419;BME280;45224;50.904;6.038;2023-03-11T07:16:04;99233.28;;;0.66;91.51
59419;BME280;45224;50.904;6.038;2023-03-11T07:17:35;99218.03;;;0.66;91.39
59419;BME280;45224;50.904;6.038;2023-03-11T07:19:07;99219.16;;;0.76;91.48
59419;BME280;45224;50.904;6.038;2023-03-11T07:20:38;99227.94;;;0.85;91.90
59419;BME280;45224;50.904;6.038;2023-03-11T07:22:09;99228.13;;;0.91;91.08
59419;BME280;45224;50.904;6.038;2023-03-11T07:23:40;99232.59;;;0.99;91.50
59419;BME280;45224;50.904;6.038;2023-03-11T07:25:10;99232.78;;;1.06;91.80
59419;BME280;45224;50.904;6.038;2023-03-11T07:26:41;99231.38;;;1.16;90.65
59419;BME280;45224;50.904;6.038;2023-03-11T07:28:12;99237.53;;;1.23;90.29
59419;BME280;45224;50.904;6.038;2023-03-11T07:29:42;99245.28;;;1.27;89.95
59419;BME280;45224;50.904;6.038;2023-03-11T07:31:15;99243.91;;;1.39;89.38
59419;BME280;45224;50.904;6.038;2023-03-11T07:32:46;99245.00;;;1.47;88.90
59419;BME280;45224;50.904;6.038;2023-03-11T07:34:17;99242.59;;;1.53;88.05
59419;BME280;45224;50.904;6.038;2023-03-11T07:35:47;99250.59;;;1.66;88.23
59419;BME280;45224;50.904;6.038;2023-03-11T07:37:18;99254.28;;;1.77;87.88
59419;BME280;45224;50.904;6.038;2023-03-11T07:39:00;99255.44;;;1.88;87.83
59419;BME280;45224;50.904;6.038;2023-03-11T07:40:33;99252.28;;;1.98;87.44
59419;BME280;45224;50.904;6.038;2023-03-11T07:42:04;99257.63;;;2.08;85.06
59419;BME280;45224;50.904;6.038;2023-03-11T07:43:40;99253.69;;;2.21;85.47
59419;BME280;45224;50.904;6.038;2023-03-11T07:45:11;99258.16;;;2.28;84.93
59419;BME280;45224;50.904;6.038;2023-03-11T07:46:42;99261.47;;;2.25;82.97
59419;BME280;45224;50.904;6.038;2023-03-11T07:48:12;99248.97;;;2.34;83.36
59419;BME280;45224;50.904;6.038;2023-03-11T07:49:43;99253.28;;;2.38;82.74
59419;BME280;45224;50.904;6.038;2023-03-11T07:51:16;99256.03;;;2.46;83.63
59419;BME280;45224;50.904;6.038;2023-03-11T07:52:47;99265.38;;;2.46;82.64
59419;BME280;45224;50.904;6.038;2023-03-11T07:54:18;99266.50;;;2.57;83.33
59419;BME280;45224;50.904;6.038;2023-03-11T07:55:54;99264.25;;;2.71;82.53
59419;BME280;45224;50.904;6.038;2023-03-11T07:57:24;99259.34;;;2.79;83.43
59419;BME280;45224;50.904;6.038;2023-03-11T07:58:57;99263.06;;;2.93;82.33
59419;BME280;45224;50.904;6.038;2023-03-11T08:00:28;99264.22;;;3.07;82.71
59419;BME280;45224;50.904;6.038;2023-03-11T08:01:58;99267.84;;;3.17;81.63
59419;BME280;45224;50.904;6.038;2023-03-11T08:03:29;99266.31;;;3.25;79.99
59419;BME280;45224;50.904;6.038;2023-03-11T08:04:59;99265.81;;;3.43;80.28
59419;BME280;45224;50.904;6.038;2023-03-11T08:06:32;99268.25;;;3.37;78.07
59419;BME280;45224;50.904;6.038;2023-03-11T08:08:03;99266.22;;;3.62;78.72
59419;BME280;45224;50.904;6.038;2023-03-11T08:09:34;99261.31;;;3.74;77.51
59419;BME280;45224;50.904;6.038;2023-03-11T08:11:04;99270.22;;;3.95;78.09
59419;BME280;45224;50.904;6.038;2023-03-11T08:12:36;99260.34;;;4.16;76.98
59419;BME280;45224;50.904;6.038;2023-03-11T08:14:06;99258.03;;;4.30;76.62
59419;BME280;45224;50.904;6.038;2023-03-11T08:15:37;99260.97;;;4.53;73.00
59419;BME280;45224;50.904;6.038;2023-03-11T08:17:08;99272.34;;;4.71;72.93
59419;BME280;45224;50.904;6.038;2023-03-11T08:18:38;99261.53;;;4.90;74.13
59419;BME280;45224;50.904;6.038;2023-03-11T08:20:09;99263.56;;;5.13;73.30
59419;BME280;45224;50.904;6.038;2023-03-11T08:21:40;99261.03;;;5.16;72.30